Time;durP1;ratioP1;P1;durP2;ratioP2;P2;SDS_P1;SDS_P2;PMS_P1;PMS_P2;Temp;Humidity;BMP_temperature;BMP_pressure;BME280_temperature;BME280_humidity;BME280_pressure;Samples;Min_cycle;Max_cycle;Signal;HPM_P1;HPM_P2
2022/12/15 00:40:57;;;;;;;15.85;14.25;;;22.70;70.50;;;;;;6257317;28;87360;-93
2022/12/15 00:44:01;;;;;;;16.20;14.70;;;22.70;70.60;;;;;;6256849;28;88547;-93
2022/12/15 00:47:03;;;;;;;17.25;15.65;;;22.70;70.50;;;;;;6257356;28;88609;-94
2022/12/15 01:20:14;;;;;;;15.38;13.98;;;22.60;70.80;;;;;;6261476;28;87036;-93
2022/12/15 01:23:16;;;;;;;15.68;14.18;;;22.60;70.80;;;;;;6260749;28;89060;-93
2022/12/15 01:26:18;;;;;;;15.27;13.88;;;22.50;70.80;;;;;;6260542;28;89274;-93
2022/12/15 01:29:23;;;;;;;14.88;13.55;;;22.50;70.80;;;;;;6260092;28;89952;-94
2022/12/15 01:32:27;;;;;;;15.13;13.73;;;22.50;70.80;;;;;;6260529;28;89285;-93
2022/12/15 01:35:29;;;;;;;15.02;13.63;;;22.50;70.80;;;;;;6259775;28;89467;-93
2022/12/15 01:38:31;;;;;;;15.20;13.82;;;22.40;70.80;;;;;;6260752;28;89925;-94
2022/12/15 01:41:33;;;;;;;14.45;13.15;;;22.50;70.90;;;;;;6260407;28;89419;-93
2022/12/15 01:44:37;;;;;;;14.10;12.80;;;22.50;70.90;;;;;;6259733;28;89282;-93
2022/12/15 01:47:41;;;;;;;15.05;13.57;;;22.50;70.90;;;;;;6260613;28;87996;-94
2022/12/15 01:50:47;;;;;;;14.27;12.98;;;22.50;70.80;;;;;;6260312;28;88430;-94
2022/12/15 01:53:59;;;;;;;14.25;12.95;;;22.50;70.80;;;;;;6260021;28;89209;-94
2022/12/15 01:57:07;;;;;;;14.48;13.13;;;22.40;70.80;;;;;;6259862;28;89006;-93
2022/12/15 02:00:10;;;;;;;14.63;13.23;;;22.40;70.80;;;;;;6259384;28;90140;-93
2022/12/15 02:03:13;;;;;;;14.07;12.77;;;22.40;70.90;;;;;;6260581;28;89712;-94
2022/12/15 02:06:16;;;;;;;13.95;12.65;;;22.40;70.90;;;;;;6259778;28;89395;-93
2022/12/15 02:09:20;;;;;;;13.45;12.15;;;22.40;71.00;;;;;;6258794;28;89083;-93
2022/12/15 02:12:34;;;;;;;14.10;12.70;;;22.40;71.00;;;;;;6259584;28;89021;-94
2022/12/15 02:15:43;;;;;;;13.65;12.35;;;22.30;71.00;;;;;;6259498;28;89644;-93
2022/12/15 02:19:00;;;;;;;13.07;11.88;;;22.40;71.00;;;;;;6259352;28;89266;-93
2022/12/15 02:22:17;;;;;;;13.73;12.52;;;22.30;71.00;;;;;;6259561;28;88832;-93
2022/12/15 02:25:53;;;;;;;13.18;11.98;;;22.30;70.90;;;;;;6258888;28;88349;-93
2022/12/15 02:29:12;;;;;;;13.40;12.10;;;22.30;70.90;;;;;;6259744;28;88983;-94
2022/12/15 02:32:21;;;;;;;13.13;11.93;;;22.30;71.00;;;;;;6258782;28;91133;-94
2022/12/15 02:35:27;;;;;;;12.80;11.60;;;22.30;70.90;;;;;;6259788;28;90379;-94
2022/12/15 02:38:31;;;;;;;12.52;11.32;;;22.30;71.00;;;;;;6259360;28;89374;-93
2022/12/15 02:41:37;;;;;;;12.75;11.65;;;22.30;71.00;;;;;;6259040;28;89310;-94
2022/12/15 02:44:43;;;;;;;12.85;11.65;;;22.20;71.00;;;;;;6258628;28;88257;-93
2022/12/15 02:47:59;;;;;;;12.02;10.85;;;22.20;70.90;;;;;;6259655;28;89319;-94
2022/12/15 02:51:17;;;;;;;12.32;11.23;;;22.20;71.00;;;;;;6258748;28;90008;-93
2022/12/15 02:54:34;;;;;;;12.18;11.07;;;22.20;71.00;;;;;;6259626;28;88697;-93
2022/12/15 02:57:46;;;;;;;11.68;10.60;;;22.20;71.80;;;;;;6259453;28;89106;-93
2022/12/15 03:00:55;;;;;;;12.48;11.35;;;22.20;71.00;;;;;;6259023;28;89768;-93
2022/12/15 03:04:02;;;;;;;11.75;10.65;;;22.20;71.00;;;;;;6257928;28;90013;-93
2022/12/15 03:07:06;;;;;;;11.50;10.40;;;22.20;71.00;;;;;;6258226;28;89361;-93
2022/12/15 03:10:11;;;;;;;10.88;9.88;;;22.20;71.00;;;;;;6259066;28;89235;-93
2022/12/15 03:13:13;;;;;;;11.48;10.48;;;22.10;71.00;;;;;;6258850;28;88341;-93
2022/12/15 03:16:15;;;;;;;11.50;10.40;;;22.10;71.00;;;;;;6258456;28;89538;-92
2022/12/15 03:19:19;;;;;;;10.93;9.93;;;22.10;71.00;;;;;;6258208;28;89419;-93
2022/12/15 03:22:22;;;;;;;11.45;10.38;;;22.10;71.00;;;;;;6258857;27;89210;-93
2022/12/15 03:25:27;;;;;;;11.05;10.05;;;22.10;71.00;;;;;;6258803;28;87697;-93
2022/12/15 03:28:29;;;;;;;11.02;10.02;;;22.10;71.10;;;;;;6258403;28;89359;-93
2022/12/15 03:31:32;;;;;;;10.95;9.95;;;22.10;71.10;;;;;;6257893;28;89067;-92
2022/12/15 03:34:35;;;;;;;10.45;9.55;;;22.10;71.10;;;;;;6258329;28;90071;-93
2022/12/15 03:37:37;;;;;;;10.60;9.70;;;22.10;71.10;;;;;;6258358;28;88242;-93
2022/12/15 03:40:39;;;;;;;10.60;9.65;;;22.10;71.10;;;;;;6259574;28;90217;-93
2022/12/15 03:43:41;;;;;;;10.48;9.57;;;22.10;71.10;;;;;;6259148;28;88029;-93
2022/12/15 03:46:43;;;;;;;10.10;9.20;;;22.10;71.00;;;;;;6258998;28;88417;-93
2022/12/15 03:49:47;;;;;;;10.80;9.80;;;22.00;71.10;;;;;;6258504;28;89227;-93
2022/12/15 03:52:52;;;;;;;10.45;9.43;;;22.00;71.10;;;;;;6258803;28;89166;-93
2022/12/15 03:55:54;;;;;;;9.73;8.82;;;22.00;71.10;;;;;;6259417;28;88730;-93
2022/12/15 03:58:56;;;;;;;10.35;9.45;;;22.00;71.10;;;;;;6258626;28;89459;-93
2022/12/15 04:02:01;;;;;;;9.80;8.90;;;22.00;71.10;;;;;;6259000;28;89158;-93
2022/12/15 04:05:05;;;;;;;10.27;9.32;;;22.00;71.20;;;;;;6258256;28;90088;-93
2022/12/15 04:08:07;;;;;;;9.85;8.95;;;21.90;71.20;;;;;;6258650;28;89553;-93
2022/12/15 04:11:09;;;;;;;9.40;8.60;;;22.00;71.20;;;;;;6258444;28;88524;-94
2022/12/15 04:14:14;;;;;;;9.63;8.73;;;22.00;71.30;;;;;;6258067;28;89312;-93
2022/12/15 04:17:18;;;;;;;9.95;9.05;;;22.00;71.20;;;;;;6258174;28;89356;-93
2022/12/15 04:20:21;;;;;;;9.40;8.50;;;22.00;71.20;;;;;;6257528;28;87884;-93
2022/12/15 04:23:25;;;;;;;9.07;8.27;;;22.00;71.00;;;;;;6258301;28;89713;-94
